Time;durP1;ratioP1;P1;durP2;ratioP2;P2;SDS_P1;SDS_P2;PMS_P1;PMS_P2;Temp;Humidity;BMP_temperature;BMP_pressure;BME280_temperature;BME280_humidity;BME280_pressure;Samples;Min_cycle;Max_cycle;Signal;HPM_P1;HPM_P2
2022/08/14 00:02:25;;;;;;;5.55;2.58;;;21.20;65.70;;;;;;5051802;28;20056;-82
2022/08/14 00:04:51;;;;;;;5.75;2.75;;;;;;;;;;5064361;28;20016;-82
2022/08/14 00:07:17;;;;;;;4.70;2.78;;;;;;;;;;5046965;28;20075;-81
2022/08/14 00:09:44;;;;;;;4.13;2.78;;;21.10;66.20;;;;;;5044770;28;20440;-81
2022/08/14 00:12:10;;;;;;;4.93;2.63;;;;;;;;;;5056216;28;20033;-81
2022/08/14 00:14:36;;;;;;;3.83;2.88;;;;;;;;;;5061699;28;20021;-79
2022/08/14 00:17:02;;;;;;;4.50;2.80;;;;;;;;;;5049353;28;20049;-81
2022/08/14 00:19:28;;;;;;;4.63;2.88;;;;;;;;;;5043375;28;20036;-81
2022/08/14 00:21:55;;;;;;;5.95;3.38;;;;;;;;;;5042224;28;20029;-80
2022/08/14 00:24:21;;;;;;;8.30;3.50;;;;;;;;;;5041430;28;20487;-81
2022/08/14 00:26:47;;;;;;;9.57;3.30;;;;;;;;;;5044334;28;20029;-80
2022/08/14 00:29:13;;;;;;;6.18;3.15;;;;;;;;;;5044743;28;20035;-79
2022/08/14 00:31:40;;;;;;;6.63;3.70;;;;;;;;;;5043731;28;20044;-81
2022/08/14 00:34:06;;;;;;;6.05;3.80;;;;;;;;;;5045539;28;20021;-81
2022/08/14 00:36:31;;;;;;;5.20;3.38;;;20.90;68.20;;;;;;5051072;28;20032;-82
2022/08/14 00:38:58;;;;;;;7.55;4.18;;;;;;;;;;5060756;28;20033;-83
2022/08/14 00:41:30;;;;;;;6.35;3.90;;;20.90;68.50;;;;;;5075285;28;20001;-82
2022/08/14 00:43:56;;;;;;;4.10;3.10;;;;;;;;;;5059843;28;20028;-87
2022/08/14 00:46:21;;;;;;;7.15;3.30;;;20.80;67.70;;;;;;5070976;28;20016;-82
2022/08/14 00:48:47;;;;;;;4.20;2.75;;;20.80;67.00;;;;;;5060973;28;20029;-85
2022/08/14 00:51:14;;;;;;;4.22;2.88;;;20.70;67.40;;;;;;5061194;28;20016;-83
2022/08/14 00:53:41;;;;;;;3.83;2.58;;;;;;;;;;5078464;28;20028;-81
2022/08/14 00:56:07;;;;;;;3.15;2.47;;;20.70;67.70;;;;;;5081647;28;20017;-84
2022/08/14 00:58:34;;;;;;;4.50;2.80;;;;;;;;;;5076634;28;20077;-82
2022/08/14 01:01:10;;;;;;;5.10;2.90;;;20.60;67.80;;;;;;5078217;28;20024;-82
2022/08/14 01:03:38;;;;;;;4.65;2.83;;;20.50;67.90;;;;;;5060636;28;20023;-83
2022/08/14 01:06:05;;;;;;;3.97;2.90;;;20.50;67.90;;;;;;5056650;28;20032;-82
2022/08/14 01:08:31;;;;;;;5.80;3.15;;;;;;;;;;5049653;28;20483;-82
2022/08/14 01:10:58;;;;;;;8.23;4.18;;;20.50;68.30;;;;;;5043225;28;20029;-83
2022/08/14 01:13:28;;;;;;;4.22;2.85;;;20.40;68.20;;;;;;5042410;28;20025;-84
2022/08/14 01:15:57;;;;;;;5.30;3.13;;;20.50;68.00;;;;;;5050795;28;20536;-81
2022/08/14 01:21:13;;;;;;;4.18;3.30;;;20.50;68.30;;;;;;5061143;28;20557;-84
2022/08/14 01:23:42;;;;;;;4.78;2.90;;;20.60;68.70;;;;;;5043153;28;20096;-83
2022/08/14 01:26:09;;;;;;;5.32;2.83;;;20.60;67.20;;;;;;5042925;28;20047;-83
2022/08/14 01:28:36;;;;;;;7.32;3.20;;;20.60;67.40;;;;;;5042942;28;20132;-83
2022/08/14 01:31:07;;;;;;;7.68;4.57;;;20.70;67.90;;;;;;5042338;28;20044;-83
2022/08/14 01:33:37;;;;;;;5.60;3.47;;;20.60;67.80;;;;;;5043256;28;20017;-82
2022/08/14 01:36:03;;;;;;;4.65;2.90;;;20.60;67.70;;;;;;5043060;28;20112;-83
2022/08/14 01:38:33;;;;;;;4.95;2.90;;;;;;;;;;5042815;28;20028;-82
2022/08/14 01:41:08;;;;;;;5.95;3.00;;;20.60;66.80;;;;;;5043745;28;20052;-83
2022/08/14 01:43:53;;;;;;;5.63;3.13;;;20.60;66.70;;;;;;5043243;28;20029;-83
2022/08/14 01:46:22;;;;;;;3.60;2.50;;;20.60;66.80;;;;;;5061188;28;20017;-84
2022/08/14 01:48:50;;;;;;;4.18;2.53;;;20.60;66.90;;;;;;5043511;28;20032;-83
2022/08/14 01:51:21;;;;;;;4.70;2.63;;;20.60;66.90;;;;;;5060410;28;20033;-82
2022/08/14 01:53:53;;;;;;;4.22;2.65;;;20.60;67.30;;;;;;5043366;28;20035;-82
2022/08/14 01:56:20;;;;;;;3.67;2.83;;;20.60;66.70;;;;;;5044175;28;20025;-82
2022/08/14 01:58:48;;;;;;;4.35;2.80;;;20.60;67.10;;;;;;5044449;28;20033;-83
2022/08/14 02:01:19;;;;;;;3.20;2.53;;;20.50;66.50;;;;;;5045019;28;20025;-83
2022/08/14 02:03:46;;;;;;;2.92;2.42;;;20.40;66.40;;;;;;5069020;28;20036;-83
2022/08/14 02:06:12;;;;;;;8.50;2.88;;;20.50;66.50;;;;;;5050336;28;20124;-82
2022/08/14 02:08:40;;;;;;;2.80;2.45;;;20.50;66.70;;;;;;5058908;28;20104;-83
2022/08/14 02:11:21;;;;;;;7.80;4.15;;;20.40;66.70;;;;;;5059772;28;20051;-82
2022/08/14 02:13:53;;;;;;;4.72;2.70;;;20.40;67.10;;;;;;5058279;28;20029;-82
2022/08/14 02:16:24;;;;;;;4.65;2.67;;;20.40;67.30;;;;;;5059848;28;20025;-83
2022/08/14 02:18:56;;;;;;;2.83;2.50;;;20.30;68.20;;;;;;5059751;28;20025;-82
2022/08/14 02:21:22;;;;;;;8.15;3.00;;;20.30;68.60;;;;;;5059906;28;20052;-84
2022/08/14 02:23:50;;;;;;;6.35;3.00;;;20.20;68.30;;;;;;5058493;28;20121;-83
2022/08/14 02:26:25;;;;;;;5.35;2.67;;;20.20;68.30;;;;;;5041393;28;20032;-84
2022/08/14 02:28:56;;;;;;;3.53;2.70;;;20.20;68.30;;;;;;5058360;28;20021;-84
2022/08/14 02:31:21;;;;;;;3.55;2.55;;;20.20;67.80;;;;;;5057080;28;20024;-81
2022/08/14 02:33:48;;;;;;;4.25;2.72;;;;;;;;;;5056490;28;20040;-80
2022/08/14 02:36:15;;;;;;;5.28;2.67;;;20.10;67.90;;;;;;5056678;28;20029;-83
2022/08/14 02:38:41;;;;;;;3.25;2.42;;;20.10;67.80;;;;;;5056299;28;20033;-82
2022/08/14 02:41:11;;;;;;;3.22;2.70;;;20.10;68.20;;;;;;5055568;28;20033;-82
2022/08/14 02:43:38;;;;;;;4.03;3.08;;;20.10;68.30;;;;;;5055928;28;20590;-83
2022/08/14 02:46:09;;;;;;;5.00;2.60;;;20.00;68.20;;;;;;5055919;28;20032;-84
2022/08/14 02:48:38;;;;;;;6.35;3.10;;;20.00;68.30;;;;;;5056528;28;20043;-81
2022/08/14 02:51:06;;;;;;;6.38;3.10;;;20.00;68.70;;;;;;5038320;28;20021;-82
2022/08/14 02:53:33;;;;;;;3.95;2.78;;;;;;;;;;5055722;28;20021;-80
2022/08/14 02:56:00;;;;;;;4.05;2.67;;;20.00;67.90;;;;;;5054603;28;20047;-82
2022/08/14 02:58:26;;;;;;;5.93;2.58;;;19.90;68.30;;;;;;5054487;28;20040;-82
2022/08/14 03:00:53;;;;;;;3.22;2.58;;;;;;;;;;5054224;28;20021;-82
2022/08/14 03:03:22;;;;;;;4.28;2.47;;;19.90;67.90;;;;;;5054231;28;20028;-80
2022/08/14 03:05:50;;;;;;;5.10;2.50;;;19.90;68.10;;;;;;5055147;28;20032;-81
2022/08/14 03:08:17;;;;;;;3.60;2.70;;;19.80;68.80;;;;;;5055643;28;20493;-83
2022/08/14 03:10:44;;;;;;;3.67;2.80;;;19.80;69.30;;;;;;5057132;28;20088;-83
2022/08/14 03:13:10;;;;;;;7.82;2.92;;;;;;;;;;5057057;28;20055;-81
2022/08/14 03:18:28;;;;;;;4.82;3.28;;;19.50;71.50;;;;;;5050219;28;20028;-83
2022/08/14 03:20:53;;;;;;;4.38;3.05;;;19.50;71.90;;;;;;5050766;28;20033;-83
2022/08/14 03:23:19;;;;;;;4.03;3.10;;;19.40;72.30;;;;;;5057036;28;20085;-84
2022/08/14 03:25:46;;;;;;;5.45;3.25;;;19.50;71.80;;;;;;5057600;28;20028;-84
2022/08/14 03:28:13;;;;;;;4.35;2.92;;;19.50;72.40;;;;;;5056988;28;20031;-84
2022/08/14 03:30:39;;;;;;;4.90;3.47;;;19.50;70.60;;;;;;5056437;28;20021;-85
2022/08/14 03:33:06;;;;;;;6.50;3.58;;;19.50;71.20;;;;;;5040192;28;20112;-85
2022/08/14 03:35:33;;;;;;;3.78;2.80;;;19.50;71.00;;;;;;5058641;28;20112;-82
2022/08/14 03:38:09;;;;;;;3.65;2.75;;;19.60;71.10;;;;;;5057988;28;20362;-84
2022/08/14 03:40:37;;;;;;;4.57;2.70;;;19.60;70.20;;;;;;5056796;28;20086;-84
2022/08/14 03:43:06;;;;;;;6.82;3.00;;;19.80;69.20;;;;;;5058175;28;20021;-83
2022/08/14 03:45:34;;;;;;;5.67;2.70;;;19.80;69.10;;;;;;5056312;28;20029;-84
2022/08/14 03:48:09;;;;;;;5.70;2.90;;;19.80;68.80;;;;;;5039522;28;20322;-80
2022/08/14 03:50:34;;;;;;;3.80;2.90;;;19.80;69.30;;;;;;5057575;28;20021;-84
2022/08/14 03:53:01;;;;;;;4.28;2.90;;;19.90;69.20;;;;;;5056686;28;20113;-83
2022/08/14 03:55:27;;;;;;;4.47;2.72;;;19.90;68.90;;;;;;5056678;28;20021;-80
2022/08/14 03:57:54;;;;;;;3.75;2.88;;;19.90;69.00;;;;;;5056653;28;20025;-83
2022/08/14 04:00:20;;;;;;;5.35;3.20;;;;;;;;;;5056639;28;20028;-82
2022/08/14 04:02:48;;;;;;;4.18;3.20;;;19.90;68.90;;;;;;5038683;28;20061;-80
2022/08/14 04:05:14;;;;;;;4.15;3.35;;;19.90;69.10;;;;;;5039329;28;20097;-81
2022/08/14 04:07:41;;;;;;;5.32;3.25;;;19.80;69.20;;;;;;5039755;28;20499;-86
2022/08/14 04:10:07;;;;;;;4.75;2.80;;;19.80;69.80;;;;;;5055765;28;20025;-82
2022/08/14 04:12:33;;;;;;;5.20;2.95;;;19.80;69.90;;;;;;5038521;28;20028;-84
2022/08/14 04:14:59;;;;;;;4.60;2.80;;;19.80;69.60;;;;;;5039175;28;20025;-83
2022/08/14 04:17:28;;;;;;;4.93;3.13;;;;;;;;;;5056956;28;20028;-86
2022/08/14 04:19:54;;;;;;;4.15;3.10;;;19.70;69.80;;;;;;5039724;28;20028;-81
2022/08/14 04:22:20;;;;;;;4.45;2.70;;;;;;;;;;5040148;28;20021;-83
2022/08/14 04:24:46;;;;;;;4.25;3.03;;;19.70;70.10;;;;;;5058611;28;20029;-83
2022/08/14 04:27:12;;;;;;;3.25;2.90;;;19.70;70.50;;;;;;5056822;28;20029;-83
2022/08/14 04:29:42;;;;;;;5.10;2.92;;;19.70;70.50;;;;;;5038448;28;20485;-81
2022/08/14 04:32:09;;;;;;;4.30;3.30;;;19.70;70.60;;;;;;5058602;28;20366;-82
2022/08/14 04:34:39;;;;;;;3.70;2.80;;;19.70;70.50;;;;;;5042344;28;20059;-82
2022/08/14 04:45:22;;;;;;;4.93;2.92;;;19.70;70.50;;;;;;5060852;28;20138;-81
2022/08/14 04:50:34;;;;;;;8.80;3.25;;;19.60;70.90;;;;;;5065480;28;20032;-84
2022/08/14 04:53:01;;;;;;;4.72;3.22;;;19.60;70.60;;;;;;5064220;28;20543;-82
2022/08/14 04:55:27;;;;;;;4.72;2.88;;;19.70;70.70;;;;;;5060476;28;20052;-84
2022/08/14 04:57:53;;;;;;;6.07;3.05;;;19.70;71.20;;;;;;5059425;28;20037;-85
2022/08/14 05:00:18;;;;;;;7.13;3.17;;;19.70;71.20;;;;;;5053550;28;20501;-84
2022/08/14 05:02:44;;;;;;;6.28;3.10;;;;;;;;;;5037864;28;20029;-83
2022/08/14 05:05:10;;;;;;;3.95;3.30;;;19.70;70.80;;;;;;5019464;28;20076;-82
2022/08/14 05:07:37;;;;;;;4.63;3.20;;;;;;;;;;5036096;28;20689;-83
2022/08/14 05:10:03;;;;;;;4.40;2.95;;;19.70;70.80;;;;;;5019603;28;20121;-80
2022/08/14 05:12:30;;;;;;;6.93;3.63;;;19.60;71.70;;;;;;5035074;28;20048;-82
2022/08/14 05:14:56;;;;;;;4.68;3.70;;;19.60;71.50;;;;;;5034843;28;20029;-82
2022/08/14 05:17:25;;;;;;;4.70;3.35;;;19.60;71.40;;;;;;5034397;28;20032;-82
2022/08/14 05:19:51;;;;;;;4.63;3.35;;;;;;;;;;5034557;28;20581;-82
2022/08/14 05:22:18;;;;;;;5.57;3.30;;;;;;;;;;5017392;28;20033;-81
2022/08/14 05:24:44;;;;;;;5.70;3.60;;;;;;;;;;5017256;28;20040;-84
2022/08/14 05:27:10;;;;;;;4.57;3.50;;;;;;;;;;5035049;28;20026;-82
2022/08/14 05:29:36;;;;;;;4.53;3.40;;;20.00;71.40;;;;;;5023111;28;20022;-82
2022/08/14 05:32:07;;;;;;;5.85;3.60;;;20.00;71.20;;;;;;5041022;28;20048;-84
2022/08/14 05:34:33;;;;;;;4.45;3.75;;;20.20;71.60;;;;;;5038638;28;20025;-83
2022/08/14 05:37:00;;;;;;;6.88;3.90;;;20.20;72.10;;;;;;5039007;28;20026;-82
2022/08/14 05:39:26;;;;;;;5.68;3.72;;;20.40;72.10;;;;;;5039225;28;20083;-85
2022/08/14 05:41:53;;;;;;;4.50;3.60;;;;;;;;;;5039117;28;20033;-84
2022/08/14 05:44:19;;;;;;;4.00;3.30;;;20.70;70.80;;;;;;5021524;28;20025;-81
2022/08/14 05:46:45;;;;;;;7.18;3.80;;;20.70;71.10;;;;;;5038772;28;20026;-83
2022/08/14 05:49:11;;;;;;;4.88;3.70;;;20.70;71.50;;;;;;5048324;28;20025;-82
2022/08/14 05:51:37;;;;;;;9.52;3.75;;;20.80;71.30;;;;;;5059506;28;20087;-81
2022/08/14 05:54:03;;;;;;;4.95;3.78;;;21.00;70.80;;;;;;5057654;28;20029;-84
2022/08/14 05:56:29;;;;;;;6.25;3.90;;;21.10;69.70;;;;;;5057097;28;20033;-84
2022/08/14 05:58:54;;;;;;;5.10;3.90;;;21.50;69.60;;;;;;5074202;28;20434;-82
2022/08/14 06:01:21;;;;;;;5.40;4.10;;;21.90;68.80;;;;;;5074418;28;20059;-85
2022/08/14 06:03:46;;;;;;;6.10;4.10;;;22.20;68.80;;;;;;5052491;28;20061;-81
2022/08/14 06:06:12;;;;;;;5.25;3.90;;;;;;;;;;5040306;28;20029;-82
2022/08/14 06:08:38;;;;;;;4.75;4.10;;;22.60;67.00;;;;;;5040911;28;20028;-82
2022/08/14 06:11:06;;;;;;;6.20;4.45;;;22.70;67.70;;;;;;5040860;28;20025;-83
2022/08/14 06:13:41;;;;;;;7.80;4.38;;;22.80;67.20;;;;;;5043476;28;20028;-83
2022/08/14 06:16:07;;;;;;;6.70;4.03;;;22.70;67.20;;;;;;5066975;22;20066;-81
2022/08/14 06:18:34;;;;;;;5.70;4.32;;;22.70;67.70;;;;;;5088126;28;20024;-82
2022/08/14 06:21:01;;;;;;;5.68;4.10;;;22.60;68.20;;;;;;5085483;28;20044;-80
2022/08/14 06:23:26;;;;;;;7.63;4.65;;;22.50;68.40;;;;;;5062505;28;20042;-82
2022/08/14 06:25:52;;;;;;;5.95;4.68;;;22.50;68.40;;;;;;5058124;28;21344;-82
2022/08/14 06:28:24;;;;;;;7.47;4.90;;;22.50;69.00;;;;;;5055895;28;20036;-81
2022/08/14 06:30:50;;;;;;;5.50;4.30;;;22.60;68.80;;;;;;5069861;28;20016;-82
2022/08/14 06:33:17;;;;;;;6.75;4.97;;;22.70;68.70;;;;;;5060107;28;20025;-83
2022/08/14 06:35:43;;;;;;;6.25;5.47;;;22.70;68.60;;;;;;5074556;28;20032;-81
2022/08/14 06:38:14;;;;;;;8.98;4.93;;;22.80;69.20;;;;;;5050902;28;20021;-83
2022/08/14 06:40:40;;;;;;;8.43;4.90;;;23.50;69.90;;;;;;5072608;28;20040;-81
2022/08/14 06:43:08;;;;;;;7.38;5.00;;;22.70;69.60;;;;;;5068513;28;20021;-83
2022/08/14 06:45:39;;;;;;;6.88;4.75;;;22.60;69.50;;;;;;5070021;28;20020;-83
2022/08/14 06:48:18;;;;;;;5.70;4.45;;;22.60;70.20;;;;;;5076063;28;20080;-79
2022/08/14 06:50:45;;;;;;;7.78;5.47;;;22.60;70.10;;;;;;5053147;28;20017;-84
2022/08/14 06:53:13;;;;;;;10.93;5.22;;;22.60;70.10;;;;;;5056320;28;20032;-81
2022/08/14 06:55:41;;;;;;;7.53;5.22;;;22.70;69.30;;;;;;5055974;28;20021;-82
2022/08/14 06:58:11;;;;;;;7.00;5.53;;;22.80;69.40;;;;;;5058095;28;20039;-81
2022/08/14 07:00:37;;;;;;;8.10;5.15;;;;;;;;;;5061250;28;20024;-82
2022/08/14 07:05:48;;;;;;;6.97;4.88;;;22.90;69.20;;;;;;5049767;28;20473;-82
2022/08/14 07:08:21;;;;;;;7.55;5.28;;;22.80;69.80;;;;;;5062004;28;20027;-81
2022/08/14 07:10:52;;;;;;;5.63;4.70;;;22.90;69.70;;;;;;5044796;28;20108;-80
2022/08/14 07:13:19;;;;;;;7.30;5.15;;;22.90;70.00;;;;;;5039927;28;20067;-81
2022/08/14 07:15:49;;;;;;;5.57;4.82;;;22.90;69.10;;;;;;5046075;28;20083;-82
2022/08/14 07:18:23;;;;;;;5.78;4.57;;;22.90;69.70;;;;;;5065779;28;20029;-79
2022/08/14 07:20:49;;;;;;;6.15;4.85;;;23.00;69.60;;;;;;5063446;28;20058;-80
2022/08/14 07:23:15;;;;;;;7.20;5.07;;;23.20;69.60;;;;;;5061954;28;20021;-81
2022/08/14 07:25:42;;;;;;;6.05;4.60;;;23.40;68.10;;;;;;5044718;28;20537;-80
2022/08/14 07:28:13;;;;;;;8.02;5.00;;;23.60;67.70;;;;;;5043416;28;20059;-81
2022/08/14 07:30:39;;;;;;;10.35;5.07;;;23.60;68.20;;;;;;5058674;28;20477;-80
2022/08/14 07:33:05;;;;;;;7.57;4.80;;;23.70;68.10;;;;;;5063471;28;20032;-81
2022/08/14 07:35:32;;;;;;;7.80;4.70;;;23.80;67.90;;;;;;5059717;28;20040;-80
2022/08/14 07:37:58;;;;;;;8.55;4.90;;;;;;;;;;5061970;28;20072;-82
2022/08/14 07:40:25;;;;;;;7.78;5.00;;;;;;;;;;5060319;28;20028;-81
2022/08/14 07:42:51;;;;;;;6.55;5.03;;;;;;;;;;5062398;28;20366;-80
2022/08/14 07:45:17;;;;;;;9.15;5.05;;;;;;;;;;5053103;28;20025;-80
2022/08/14 07:47:43;;;;;;;6.93;4.90;;;;;;;;;;5070500;28;20033;-80
2022/08/14 07:50:18;;;;;;;6.22;4.70;;;24.30;66.20;;;;;;5067489;28;20025;-79
2022/08/14 07:52:45;;;;;;;8.43;5.00;;;24.50;66.30;;;;;;5048482;28;20047;-80
2022/08/14 07:55:14;;;;;;;5.95;4.40;;;24.70;64.60;;;;;;5071213;28;20031;-82
2022/08/14 07:57:42;;;;;;;4.65;4.15;;;24.70;64.50;;;;;;5072678;28;20021;-81
2022/08/14 08:00:19;;;;;;;6.63;4.03;;;24.80;65.00;;;;;;5063546;28;20020;-81
2022/08/14 08:02:46;;;;;;;5.22;4.20;;;25.10;64.10;;;;;;5071445;28;20052;-81
2022/08/14 08:05:13;;;;;;;4.40;3.70;;;25.20;62.40;;;;;;5056278;28;20020;-80
2022/08/14 08:07:41;;;;;;;5.10;3.83;;;25.40;63.30;;;;;;5055161;28;20017;-81
2022/08/14 08:12:56;;;;;;;6.30;3.80;;;25.40;62.20;;;;;;5064905;28;20053;-80
2022/08/14 08:15:27;;;;;;;5.85;4.20;;;25.50;62.00;;;;;;5048417;28;20123;-81
2022/08/14 08:17:53;;;;;;;4.82;3.78;;;25.70;61.40;;;;;;5052901;28;20394;-79
2022/08/14 08:20:25;;;;;;;5.10;3.65;;;25.70;61.80;;;;;;5058797;28;20025;-84
2022/08/14 08:22:54;;;;;;;6.25;4.10;;;26.00;61.60;;;;;;5053782;28;20022;-81
2022/08/14 08:25:20;;;;;;;5.63;4.03;;;;;;;;;;5037991;28;20021;-83
2022/08/14 08:28:07;;;;;;;6.03;4.28;;;26.20;61.40;;;;;;5071068;28;20021;-82
2022/08/14 08:30:34;;;;;;;8.23;4.00;;;26.30;62.00;;;;;;5078481;28;20071;-81
2022/08/14 08:33:00;;;;;;;4.20;3.70;;;26.60;60.30;;;;;;5080824;28;20037;-82
2022/08/14 08:35:29;;;;;;;4.97;3.85;;;26.60;60.40;;;;;;5077821;28;20020;-82
2022/08/14 08:38:12;;;;;;;6.40;3.95;;;26.80;60.40;;;;;;5056816;28;20025;-81
2022/08/14 08:40:40;;;;;;;4.82;3.92;;;26.70;60.80;;;;;;5071174;28;20024;-82
2022/08/14 08:43:08;;;;;;;5.68;4.00;;;27.10;60.10;;;;;;5059286;28;20021;-83
2022/08/14 08:45:35;;;;;;;5.30;3.42;;;27.30;60.10;;;;;;5056606;28;20024;-83
2022/08/14 08:48:02;;;;;;;7.25;3.42;;;27.30;58.10;;;;;;5071726;28;20025;-81
2022/08/14 08:50:38;;;;;;;3.55;3.03;;;26.40;57.90;;;;;;5051785;28;20041;-83
2022/08/14 08:53:09;;;;;;;4.43;3.10;;;27.50;57.00;;;;;;5069674;28;20021;-82
2022/08/14 08:55:42;;;;;;;5.13;2.80;;;27.60;57.10;;;;;;5070833;28;20013;-81
2022/08/14 08:58:09;;;;;;;3.30;2.63;;;27.70;57.50;;;;;;5057742;28;20088;-83
2022/08/14 09:00:36;;;;;;;4.30;2.35;;;27.80;55.60;;;;;;5077787;28;20039;-81
2022/08/14 09:03:02;;;;;;;3.30;2.45;;;;;;;;;;5067769;28;20028;-82
2022/08/14 09:05:29;;;;;;;3.50;2.20;;;;;;;;;;5069383;28;20059;-82
2022/08/14 09:08:12;;;;;;;4.95;2.60;;;27.90;55.20;;;;;;5053549;28;20087;-82
2022/08/14 09:10:38;;;;;;;4.68;2.60;;;;;;;;;;5071046;28;20021;-83
2022/08/14 09:13:04;;;;;;;3.95;2.33;;;;;;;;;;5051638;28;20025;-83
2022/08/14 09:15:30;;;;;;;3.00;2.20;;;28.20;54.10;;;;;;5056874;28;20048;-81
2022/08/14 09:17:56;;;;;;;4.20;2.40;;;28.30;54.60;;;;;;5057625;28;20017;-79
2022/08/14 09:20:22;;;;;;;4.63;2.22;;;;;;;;;;5057128;28;20021;-81
2022/08/14 09:22:48;;;;;;;5.78;2.45;;;28.70;53.30;;;;;;5051529;28;20028;-81
2022/08/14 09:25:17;;;;;;;4.05;2.60;;;28.70;53.40;;;;;;5070581;28;20017;-81
2022/08/14 09:27:43;;;;;;;3.27;2.17;;;;;;;;;;5052854;28;20024;-82
2022/08/14 09:30:10;;;;;;;2.63;2.17;;;28.70;53.30;;;;;;5054215;28;20021;-82
2022/08/14 09:33:05;;;;;;;4.28;2.20;;;28.50;53.30;;;;;;5056679;28;20450;-79
2022/08/14 09:35:31;;;;;;;4.35;2.10;;;;;;;;;;5061777;28;20029;-81
2022/08/14 09:38:24;;;;;;;2.95;2.28;;;29.00;53.30;;;;;;5053371;28;20286;-79
2022/08/14 09:41:22;;;;;;;3.97;2.17;;;29.20;53.70;;;;;;5052596;28;20040;-80
2022/08/14 09:44:01;;;;;;;5.03;2.47;;;29.30;53.10;;;;;;5051272;28;20052;-80
2022/08/14 09:46:27;;;;;;;3.67;2.35;;;29.50;52.30;;;;;;5073199;28;20624;-81
2022/08/14 09:49:06;;;;;;;2.60;2.20;;;29.70;50.70;;;;;;5072872;28;20033;-80
2022/08/14 09:51:34;;;;;;;5.93;1.98;;;29.70;50.30;;;;;;5070005;28;20470;-81
2022/08/14 09:54:08;;;;;;;3.73;2.20;;;29.70;49.70;;;;;;5061806;28;20089;-80
2022/08/14 09:56:45;;;;;;;4.22;1.95;;;29.70;49.60;;;;;;5055539;28;20494;-81
2022/08/14 09:59:13;;;;;;;4.20;2.30;;;29.70;49.90;;;;;;5047718;28;20067;-81
2022/08/14 10:01:40;;;;;;;2.33;2.00;;;;;;;;;;5065658;28;20035;-82
2022/08/14 10:04:18;;;;;;;3.85;2.20;;;30.20;49.50;;;;;;5068136;28;20031;-82
2022/08/14 10:06:46;;;;;;;7.45;1.90;;;30.30;49.40;;;;;;5070976;28;20040;-83
2022/08/14 10:09:12;;;;;;;3.78;2.20;;;30.40;49.50;;;;;;5071995;28;20020;-82
2022/08/14 10:11:40;;;;;;;5.32;2.28;;;30.50;49.60;;;;;;5052423;28;20024;-82
2022/08/14 10:14:17;;;;;;;3.20;2.22;;;30.50;49.60;;;;;;5074827;28;20104;-82
2022/08/14 10:16:45;;;;;;;3.50;2.15;;;30.60;49.00;;;;;;5074427;28;20044;-83
2022/08/14 10:19:13;;;;;;;4.05;2.20;;;30.70;49.50;;;;;;5073184;28;20023;-83
2022/08/14 10:21:46;;;;;;;2.80;2.00;;;30.70;48.90;;;;;;5073618;28;20025;-82
2022/08/14 10:24:23;;;;;;;6.53;2.20;;;30.70;48.70;;;;;;5051825;28;20306;-83
2022/08/14 10:27:01;;;;;;;4.43;1.98;;;30.70;48.30;;;;;;5068866;28;20025;-83
2022/08/14 10:29:38;;;;;;;3.42;2.08;;;30.70;48.40;;;;;;5051104;28;20434;-81
2022/08/14 10:32:04;;;;;;;3.80;1.80;;;;;;;;;;5071320;28;20021;-81
2022/08/14 10:34:35;;;;;;;3.67;2.30;;;30.70;48.20;;;;;;5068653;28;20104;-79
2022/08/14 10:37:10;;;;;;;2.50;2.10;;;30.70;48.40;;;;;;5051630;28;20020;-80
2022/08/14 10:39:37;;;;;;;3.08;2.10;;;30.90;48.80;;;;;;5073000;28;20016;-82
2022/08/14 10:42:05;;;;;;;3.97;2.00;;;30.90;48.20;;;;;;5054384;28;20020;-80
2022/08/14 10:44:37;;;;;;;3.25;2.10;;;31.00;48.20;;;;;;5068772;28;20025;-82
2022/08/14 10:47:09;;;;;;;4.57;2.17;;;30.90;48.00;;;;;;5071448;28;20028;-81
2022/08/14 10:49:37;;;;;;;3.97;2.17;;;31.00;48.00;;;;;;5049501;28;20028;-80
2022/08/14 10:52:06;;;;;;;2.80;1.93;;;;;;;;;;5059774;28;20021;-81
2022/08/14 10:54:44;;;;;;;2.92;2.15;;;31.00;47.40;;;;;;5052868;28;20016;-82
2022/08/14 10:57:23;;;;;;;5.57;2.00;;;31.30;47.40;;;;;;5052153;28;20028;-82
2022/08/14 10:59:49;;;;;;;2.13;1.92;;;;;;;;;;5071853;28;20032;-80
2022/08/14 11:02:20;;;;;;;4.80;1.90;;;31.40;47.30;;;;;;5069496;28;20072;-80
2022/08/14 11:05:12;;;;;;;3.72;2.22;;;31.50;46.50;;;;;;5076946;28;20031;-82
2022/08/14 11:07:53;;;;;;;4.47;2.55;;;31.60;46.00;;;;;;5078542;28;20035;-81
2022/08/14 11:10:19;;;;;;;3.85;2.17;;;31.60;46.00;;;;;;5087197;28;20092;-82
2022/08/14 11:12:51;;;;;;;3.72;2.30;;;31.60;46.60;;;;;;5075002;28;20082;-81
2022/08/14 11:15:18;;;;;;;3.33;1.80;;;32.00;45.70;;;;;;5083728;28;20004;-80
2022/08/14 11:17:49;;;;;;;2.50;2.20;;;32.20;46.00;;;;;;5069205;28;20093;-81
2022/08/14 11:20:17;;;;;;;4.13;2.03;;;32.20;46.00;;;;;;5080786;28;20020;-80
2022/08/14 11:22:44;;;;;;;3.40;1.95;;;32.00;45.30;;;;;;5082652;28;20096;-80
2022/08/14 11:25:13;;;;;;;4.20;1.70;;;32.10;45.80;;;;;;5068821;28;20029;-81
2022/08/14 11:27:44;;;;;;;2.50;1.77;;;32.30;44.60;;;;;;5074401;28;20080;-81
2022/08/14 11:30:15;;;;;;;2.72;2.17;;;32.30;44.70;;;;;;5079694;28;20032;-82
2022/08/14 11:32:43;;;;;;;2.80;1.67;;;32.10;43.90;;;;;;5058938;28;20001;-80
2022/08/14 11:35:16;;;;;;;3.60;1.70;;;31.90;44.20;;;;;;5057943;28;20020;-81
2022/08/14 11:38:01;;;;;;;2.85;1.60;;;31.80;44.40;;;;;;5054576;28;20017;-79
2022/08/14 11:40:35;;;;;;;3.13;1.60;;;31.90;44.00;;;;;;5041376;28;20092;-82
2022/08/14 11:43:03;;;;;;;2.38;1.50;;;31.90;44.10;;;;;;5061471;28;20046;-81
2022/08/14 11:45:34;;;;;;;4.20;1.60;;;31.80;43.00;;;;;;5062861;28;20063;-81
2022/08/14 11:48:16;;;;;;;2.03;1.55;;;31.90;43.30;;;;;;5049249;28;20032;-79
2022/08/14 11:50:44;;;;;;;2.63;1.50;;;32.10;42.30;;;;;;5063779;28;20732;-80
2022/08/14 11:53:27;;;;;;;1.98;1.40;;;32.10;42.00;;;;;;5065561;28;20017;-80
2022/08/14 11:56:01;;;;;;;2.90;1.40;;;32.20;41.90;;;;;;5065726;28;20032;-79
2022/08/14 11:58:33;;;;;;;2.55;1.40;;;32.10;42.20;;;;;;5061650;28;20082;-80
2022/08/14 12:01:02;;;;;;;2.20;1.60;;;32.10;41.50;;;;;;5063739;28;20044;-80
2022/08/14 12:03:35;;;;;;;3.45;1.50;;;32.10;42.00;;;;;;5064161;28;20075;-80
2022/08/14 12:06:06;;;;;;;4.13;1.52;;;32.60;41.70;;;;;;5063417;28;20059;-83
2022/08/14 12:08:34;;;;;;;2.53;1.50;;;32.50;42.10;;;;;;5064299;28;20055;-81
2022/08/14 12:11:00;;;;;;;2.38;1.50;;;;;;;;;;5052679;28;20021;-83
2022/08/14 12:13:31;;;;;;;1.90;1.30;;;32.80;41.10;;;;;;5055779;28;20028;-81
2022/08/14 12:16:01;;;;;;;1.92;1.42;;;32.40;41.10;;;;;;5048926;28;20052;-82
2022/08/14 12:18:56;;;;;;;2.70;1.63;;;32.20;41.40;;;;;;5059079;28;20483;-82
2022/08/14 12:21:24;;;;;;;5.35;1.50;;;32.20;41.80;;;;;;5044579;28;20079;-82
2022/08/14 12:24:08;;;;;;;2.30;1.63;;;32.20;42.00;;;;;;5047695;28;20029;-82
2022/08/14 12:26:36;;;;;;;5.13;1.70;;;32.20;41.60;;;;;;5071856;28;20470;-80
2022/08/14 12:29:06;;;;;;;2.00;1.60;;;32.10;41.50;;;;;;5047399;28;20025;-81
2022/08/14 12:31:33;;;;;;;3.88;1.58;;;;;;;;;;5052347;28;20017;-82
2022/08/14 12:34:04;;;;;;;1.80;1.40;;;32.10;41.80;;;;;;5064359;28;20032;-80
2022/08/14 12:36:30;;;;;;;3.38;1.73;;;32.10;41.70;;;;;;5053789;28;20494;-82
2022/08/14 12:38:56;;;;;;;2.72;1.60;;;32.30;41.80;;;;;;5063645;28;20029;-80
2022/08/14 12:41:25;;;;;;;3.35;1.90;;;32.40;41.70;;;;;;5069306;28;20043;-81
2022/08/14 12:43:52;;;;;;;2.13;1.52;;;;;;;;;;5063853;28;20044;-82
2022/08/14 12:46:33;;;;;;;1.98;1.50;;;32.60;41.60;;;;;;5049800;28;20122;-81
2022/08/14 12:49:05;;;;;;;2.22;1.48;;;32.40;41.20;;;;;;5044924;28;20111;-80
2022/08/14 12:51:32;;;;;;;2.45;1.65;;;;;;;;;;5063973;28;20025;-81
2022/08/14 12:53:59;;;;;;;2.00;1.70;;;32.30;41.40;;;;;;5063637;28;20483;-83
2022/08/14 12:56:25;;;;;;;2.20;1.55;;;;;;;;;;5064861;28;20029;-80
2022/08/14 12:58:56;;;;;;;2.72;1.75;;;32.20;41.00;;;;;;5050729;28;20034;-80
2022/08/14 13:01:27;;;;;;;3.53;1.75;;;31.90;41.60;;;;;;5064125;28;20051;-82
2022/08/14 13:04:14;;;;;;;2.20;1.67;;;31.90;42.10;;;;;;5054066;28;20031;-82
2022/08/14 13:06:46;;;;;;;4.43;1.85;;;31.80;42.00;;;;;;5060745;28;20031;-81
2022/08/14 13:09:14;;;;;;;2.75;1.80;;;31.80;42.50;;;;;;5064759;28;20017;-80
2022/08/14 13:11:45;;;;;;;3.38;1.67;;;32.00;42.20;;;;;;5047636;28;20037;-80
2022/08/14 13:14:14;;;;;;;3.58;2.58;;;31.90;42.60;;;;;;5044098;28;20030;-82
2022/08/14 13:16:41;;;;;;;2.78;1.50;;;31.80;40.50;;;;;;5053800;28;20400;-81
2022/08/14 13:19:14;;;;;;;3.70;1.90;;;31.80;41.00;;;;;;5061626;28;20069;-82
2022/08/14 13:21:41;;;;;;;1.77;1.60;;;31.90;41.30;;;;;;5065063;28;20029;-80
2022/08/14 13:24:11;;;;;;;4.18;1.90;;;31.80;41.70;;;;;;5063437;28;20029;-83
2022/08/14 13:26:55;;;;;;;3.75;1.73;;;32.30;41.70;;;;;;5060614;28;20398;-83
2022/08/14 13:29:27;;;;;;;2.13;1.30;;;32.50;41.40;;;;;;5045728;28;20021;-81
2022/08/14 13:31:54;;;;;;;1.98;1.52;;;32.30;41.40;;;;;;5064500;28;20021;-80
2022/08/14 13:34:22;;;;;;;6.80;1.90;;;32.30;42.00;;;;;;5063902;28;20091;-80
2022/08/14 13:36:49;;;;;;;2.25;1.50;;;32.50;41.80;;;;;;5047244;28;20025;-80
2022/08/14 13:39:20;;;;;;;2.55;1.90;;;32.80;41.40;;;;;;5046054;28;20033;-81